TFM - Tactical Decision Aid (Experimental) INFO Settings
ID: Runway Winds: CIG/VIS Threshold: METAR Board: Map:

Katl - Atlanta-Hartsfield Jackson Intl

Updated at: 1806 UTC 28 May 2015
Latest TAF at: 1741 UTC 28 May 2015

TAF Board

Time1803Z28/19Z28/20Z28/21Z28/22Z28/23Z29/00Z29/01Z29/02Z29/03Z29/04Z29/05Z29/06Z29/07Z
TypeOBSPRVL
  [TEMP]  
PRVL
  [TEMP]  
PRVL
  [TEMP]  
PRVLPRVLPRVLPRVLPRVLPRVLPRVLPRVLPRVLPRVL
VIS8>6
  [3]  
>6
  [3]  
>6
  [3]  
>6>6>6>6>6>6>6>6>6>6
CIG70--
  [25]  
--
  [25]  
--
  [25]  
80808080808080804545
CoverBKNSCT
  [BKN]  
SCT
  [BKN]  
SCT
  [BKN]  
BKNBKNBKNBKNBKNBKNBKNBKNBKNBKN
FltCatVFRVFR
  [MVFR]  
VFR
  [MVFR]  
VFR
  [MVFR]  
VFRVFRVFRVFRVFRVFRVFRVFRVFRVFR
WX-TSRAVCSH
  [TSRA]  
VCSH
  [TSRA]  
VCSH
  [TSRA]  
--------------------
WDirVRB110
[VRB]
110
[VRB]
110
[VRB]
140140140140140140140140VRBVRB
WSpd06
  [15]  
6
  [15]  
6
  [15]  
6666666633
WGst----
  [--]  
--
  [--]  
--
  [--]  
--------------------
TAF
KATL 281741Z 2818/2924 11006KT P6SM VCSH FEW030 SCT100
  TEMPO 2818/2822 VRB15KT 3SM TSRA BKN025CB
  FM282200 14006KT P6SM SCT040 BKN080
  FM290600 VRB03KT P6SM SCT015 BKN045
  FM291400 15007KT P6SM BKN030
  FM291900 17007KT P6SM SCT040
  PROB30 2919/2923 3SM TSRA BKN025CB


METAR
KATL 281803Z 00000KT 8SM R09R/5500VP6000FT -TSRA SCT020CB BKN070 BKN110 BKN250 24/19 A3019 RMK AO2 TSB01 VIS LWR SE-S-SW-W SHRA OCNL LTGIC SE-S-SW-W TS VC SE-S-SW-W MOV N P0006
KATL 281801Z 24003KT 9SM R09R/5500VP6000FT -TSRA SCT020CB BKN070 BKN110 BKN250 24/19 A3020 RMK AO2 TSB01 OCNL LTGIC SE-S-SW-W TS VC SE-S-SW-W MOV N SHRA VC SE-S-SW-W P0004
KATL 281752Z 15005KT 10SM -RA FEW030CB BKN060 BKN110 BKN250 26/19 A3020 RMK AO2 RAB51 SLP219 VIS LWR SW SHRA CB OHD-SW MOV N CB DSNT SE-S-SW-W-NW CB DSNT N TCU DSNT ALQDS P0000 60000 T02610189 10272 20200 58010
KATL 281652Z 11004KT 10SM FEW030 SCT110 SCT250 27/19 A3022 RMK AO2 SLP223 CB DSNT S-SW TCU DSNT E & DSNT NW T02670194

TAF/METAR Board Legend

Potential Impact
  None Marginal Slight Moderate High
Visibility (sm) > ≤X≤ <
Ceiling (100 ft) > ≤X≤ <
Wind Speed (kt) <10 10≤X<20 20≤X<30 ≥30
Wind Gust (kt) <15 15≤X<25 25≤X<35 ≥35
Weather No Wx Reported VCTS -TS,-FZRA TS,FZRA +TS,+FZRA